Time;durP1;ratioP1;P1;durP2;ratioP2;P2;SDS_P1;SDS_P2;PMS_P1;PMS_P2;Temp;Humidity;BMP_temperature;BMP_pressure;BME280_temperature;BME280_humidity;BME280_pressure;Samples;Min_cycle;Max_cycle;Signal;HPM_P1;HPM_P2
2023/02/03 00:00:47;;;;;;;;;;;;;;;2.78;64.92;94854.59;4147607;28;19922;-60
2023/02/03 00:02:48;;;;;;;;;;;;;;;2.65;65.23;94849.47;4146095;28;19972;-62
2023/02/03 00:04:50;;;;;;;;;;;;;;;2.65;65.67;94852.03;4148604;28;20007;-63
2023/02/03 00:06:51;;;;;;;;;;;;;;;2.56;66.18;94836.31;4148281;28;20004;-62
2023/02/03 00:08:54;;;;;;;;;;;;;;;2.52;66.51;94850.41;4146537;28;19926;-62
2023/02/03 00:10:55;;;;;;;;;;;;;;;2.50;66.88;94854.88;4130263;28;19929;-61
2023/02/03 00:12:57;;;;;;;;;;;;;;;2.50;66.63;94854.88;4130829;28;20341;-62
2023/02/03 00:14:58;;;;;;;;;;;;;;;2.60;66.81;94861.03;4147545;28;20302;-61
2023/02/03 00:17:00;;;;;;;;;;;;;;;2.59;66.86;94859.41;4147237;28;19964;-62
2023/02/03 00:19:01;;;;;;;;;;;;;;;2.59;66.93;94865.41;4148383;28;19921;-61
2023/02/03 00:21:03;;;;;;;;;;;;;;;2.56;67.03;94860.44;4148078;28;19921;-61
2023/02/03 00:23:05;;;;;;;;;;;;;;;2.59;67.40;94867.16;4146808;28;19922;-62
2023/02/03 00:25:07;;;;;;;;;;;;;;;2.57;67.92;94862.09;4144937;28;19925;-61
2023/02/03 00:27:09;;;;;;;;;;;;;;;2.58;67.97;94879.28;4144386;28;20422;-62
2023/02/03 00:29:10;;;;;;;;;;;;;;;2.49;68.13;94864.38;4147953;28;19925;-62
2023/02/03 00:31:18;;;;;;;;;;;;;;;2.44;68.64;94872.47;4144096;28;19929;-62
2023/02/03 00:33:20;;;;;;;;;;;;;;;2.44;68.56;94866.47;4144904;28;20331;-63
2023/02/03 00:35:22;;;;;;;;;;;;;;;2.44;68.83;94863.88;4148780;28;20351;-61
2023/02/03 00:37:23;;;;;;;;;;;;;;;2.48;68.80;94874.84;4143163;28;19921;-62
2023/02/03 00:39:25;;;;;;;;;;;;;;;2.44;68.90;94877.63;4140536;28;19953;-63
2023/02/03 00:41:27;;;;;;;;;;;;;;;2.45;69.08;94873.28;4146917;28;19980;-63
2023/02/03 00:43:29;;;;;;;;;;;;;;;2.51;69.02;94883.19;4143675;28;19928;-61
2023/02/03 00:45:30;;;;;;;;;;;;;;;2.51;68.61;94879.78;4130508;28;20016;-62
2023/02/03 00:47:32;;;;;;;;;;;;;;;2.48;68.83;94880.84;4148005;28;19936;-63
2023/02/03 00:49:34;;;;;;;;;;;;;;;2.42;68.78;94876.09;4147405;28;19928;-62
2023/02/03 00:51:35;;;;;;;;;;;;;;;2.41;68.91;94869.25;4147521;28;20313;-63
2023/02/03 00:53:37;;;;;;;;;;;;;;;2.41;69.06;94874.41;4148459;28;20279;-62
2023/02/03 00:55:38;;;;;;;;;;;;;;;2.43;68.75;94882.91;4148215;28;20422;-63
2023/02/03 00:57:40;;;;;;;;;;;;;;;2.41;68.96;94888.19;4147911;28;19975;-63
2023/02/03 00:59:41;;;;;;;;;;;;;;;2.39;68.81;94882.28;4139763;28;19928;-62
2023/02/03 01:01:43;;;;;;;;;;;;;;;2.44;68.77;94884.56;4141829;28;19967;-62
2023/02/03 01:03:44;;;;;;;;;;;;;;;2.34;68.71;94894.69;4138103;28;20331;-62
2023/02/03 01:05:46;;;;;;;;;;;;;;;2.41;68.75;94898.53;4136343;28;20281;-62
2023/02/03 01:07:47;;;;;;;;;;;;;;;2.39;69.02;94902.97;4140463;28;19929;-62
2023/02/03 01:09:49;;;;;;;;;;;;;;;2.41;69.30;94900.28;4148636;28;19948;-62
2023/02/03 01:11:50;;;;;;;;;;;;;;;2.33;69.41;94898.22;4148293;28;20312;-61
2023/02/03 01:13:53;;;;;;;;;;;;;;;2.38;69.25;94901.31;4135478;28;19922;-63
2023/02/03 01:15:54;;;;;;;;;;;;;;;2.46;69.02;94908.56;4145705;28;19922;-59
2023/02/03 01:17:56;;;;;;;;;;;;;;;2.38;68.73;94888.38;4138140;28;19929;-62
2023/02/03 01:19:57;;;;;;;;;;;;;;;2.33;69.05;94897.41;4147258;28;19928;-63
2023/02/03 01:21:59;;;;;;;;;;;;;;;2.31;68.68;94887.16;4146727;28;19925;-64
2023/02/03 01:24:00;;;;;;;;;;;;;;;2.42;68.21;94897.59;4146784;28;20312;-62
2023/02/03 01:26:05;;;;;;;;;;;;;;;2.28;68.23;94902.91;4147082;28;20383;-63
2023/02/03 01:28:07;;;;;;;;;;;;;;;2.30;68.24;94887.25;4133705;28;19922;-61
2023/02/03 01:30:09;;;;;;;;;;;;;;;2.31;68.38;94897.50;4142993;28;19977;-63
2023/02/03 01:32:10;;;;;;;;;;;;;;;2.28;68.21;94895.13;4137969;28;20446;-62
2023/02/03 01:34:13;;;;;;;;;;;;;;;2.30;68.29;94893.25;4147580;28;20016;-63
2023/02/03 01:36:15;;;;;;;;;;;;;;;2.21;68.28;94893.88;4133878;28;19922;-61
2023/02/03 10:11:48;;;;;;;;;;;;;;;3.76;52.88;95216.41;4055855;28;20477;-64
2023/02/03 10:13:59;;;;;;;;;;;;;;;3.30;54.97;95191.03;4145205;28;19934;-63
2023/02/03 10:16:00;;;;;;;;;;;;;;;3.51;54.90;95183.56;4145253;28;19948;-64
2023/02/03 10:18:22;;;;;;;;;;;;;;;3.62;54.33;95181.91;4146668;28;20308;-63
2023/02/03 10:20:44;;;;;;;;;;;;;;;3.56;53.78;95197.03;4117640;28;19988;-64
2023/02/03 10:22:53;;;;;;;;;;;;;;;3.74;53.54;95172.44;4143195;28;19921;-63
2023/02/03 10:25:07;;;;;;;;;;;;;;;4.09;52.88;95175.19;4146515;28;20484;-62
2023/02/03 10:27:12;;;;;;;;;;;;;;;4.17;52.70;95181.59;4145549;28;19925;-64
2023/02/03 10:29:17;;;;;;;;;;;;;;;4.23;52.47;95175.97;4133486;28;19922;-64
2023/02/03 10:31:20;;;;;;;;;;;;;;;4.13;53.43;95168.03;4138891;28;20458;-65
2023/02/03 10:33:24;;;;;;;;;;;;;;;4.00;53.67;95167.22;4135893;28;19956;-65
2023/02/03 10:35:34;;;;;;;;;;;;;;;4.11;53.30;95172.50;4144798;28;20269;-63
2023/02/03 10:37:37;;;;;;;;;;;;;;;4.14;52.58;95169.69;4146703;28;20358;-65
2023/02/03 10:39:39;;;;;;;;;;;;;;;4.18;51.12;95168.53;4128131;28;20376;-63
2023/02/03 10:41:41;;;;;;;;;;;;;;;4.10;50.42;95170.81;4146102;28;19925;-64
2023/02/03 10:43:51;;;;;;;;;;;;;;;4.05;51.78;95162.56;4133359;28;20100;-64
2023/02/03 10:45:53;;;;;;;;;;;;;;;4.15;50.86;95163.56;4132614;28;19928;-65
2023/02/03 10:47:54;;;;;;;;;;;;;;;4.15;51.88;95183.47;4146214;28;20372;-62
2023/02/03 10:49:56;;;;;;;;;;;;;;;4.06;50.91;95193.53;4128935;28;19929;-64
2023/02/03 10:52:01;;;;;;;;;;;;;;;3.99;50.58;95168.97;4146579;28;19925;-64
2023/02/03 10:54:02;;;;;;;;;;;;;;;3.94;50.33;95173.69;4146177;28;19921;-65
2023/02/03 10:56:07;;;;;;;;;;;;;;;3.96;50.69;95182.16;4133810;28;19926;-64
2023/02/03 10:58:10;;;;;;;;;;;;;;;3.78;50.57;95181.66;4145954;28;19988;-65
2023/02/03 11:00:30;;;;;;;;;;;;;;;3.35;50.64;95199.31;4127963;28;20044;-64
2023/02/03 11:02:32;;;;;;;;;;;;;;;3.02;50.43;95172.97;4128391;28;19929;-64
2023/02/03 11:04:33;;;;;;;;;;;;;;;3.15;50.88;95178.16;4157881;28;19965;-64
2023/02/03 11:06:35;;;;;;;;;;;;;;;3.12;51.64;95183.56;4135177;28;19949;-66
2023/02/03 11:08:38;;;;;;;;;;;;;;;3.22;51.29;95174.22;4145033;28;20013;-65
2023/02/03 11:10:42;;;;;;;;;;;;;;;3.12;51.38;95175.78;4143831;28;19997;-63
2023/02/03 11:12:43;;;;;;;;;;;;;;;3.23;51.63;95173.31;4125921;28;19922;-64
2023/02/03 11:14:48;;;;;;;;;;;;;;;3.39;51.21;95175.69;4141070;28;19922;-63
2023/02/03 11:16:50;;;;;;;;;;;;;;;3.46;50.87;95183.88;4137259;28;19979;-63
2023/02/03 11:18:53;;;;;;;;;;;;;;;3.52;50.06;95180.88;4139030;28;20131;-62
2023/02/03 11:20:54;;;;;;;;;;;;;;;3.52;49.96;95160.13;4125987;28;19925;-65
2023/02/03 11:22:56;;;;;;;;;;;;;;;3.49;50.12;95160.38;4144930;28;20057;-64
2023/02/03 11:24:57;;;;;;;;;;;;;;;3.68;50.13;95155.56;4127308;28;19968;-64
2023/02/03 11:27:09;;;;;;;;;;;;;;;3.73;49.70;95152.66;4123442;28;19986;-64
2023/02/03 11:29:22;;;;;;;;;;;;;;;3.76;49.00;95147.25;4120439;28;19980;-63
2023/02/03 11:31:25;;;;;;;;;;;;;;;4.13;48.45;95134.31;4145439;28;19921;-64
2023/02/03 11:33:27;;;;;;;;;;;;;;;4.39;47.87;95135.03;4123576;28;20415;-65
2023/02/03 11:35:30;;;;;;;;;;;;;;;4.56;46.49;95135.56;4115873;28;20300;-65
2023/02/03 11:37:36;;;;;;;;;;;;;;;4.64;46.82;95128.88;4117377;28;20384;-65
2023/02/03 11:39:38;;;;;;;;;;;;;;;4.72;46.82;95131.75;4117078;28;20013;-64
2023/02/03 11:41:40;;;;;;;;;;;;;;;4.71;46.95;95129.25;4131332;28;19925;-64
2023/02/03 11:43:41;;;;;;;;;;;;;;;4.52;45.95;95116.81;4126810;28;19930;-63
2023/02/03 11:45:44;;;;;;;;;;;;;;;4.50;46.36;95121.28;4133942;28;19967;-64
2023/02/03 11:47:45;;;;;;;;;;;;;;;4.35;46.65;95118.03;4149236;28;19944;-63
2023/02/03 11:49:55;;;;;;;;;;;;;;;4.29;47.34;95119.31;4147111;28;20010;-63
2023/02/03 11:52:20;;;;;;;;;;;;;;;4.48;46.71;95117.97;4139138;28;19945;-63
2023/02/03 11:54:39;;;;;;;;;;;;;;;4.45;46.50;95119.03;4118832;28;19976;-63
2023/02/03 11:56:47;;;;;;;;;;;;;;;4.66;46.35;95121.81;4115450;28;19922;-65
2023/02/03 11:58:52;;;;;;;;;;;;;;;4.75;45.42;95119.50;4122227;28;20043;-63
2023/02/03 12:00:56;;;;;;;;;;;;;;;4.63;45.34;95136.81;4142627;28;20011;-64
2023/02/03 12:03:03;;;;;;;;;;;;;;;4.66;45.16;95124.41;4126422;28;20008;-63
2023/02/03 12:05:17;;;;;;;;;;;;;;;4.19;44.60;95112.28;4124329;28;19953;-62
2023/02/03 12:07:18;;;;;;;;;;;;;;;3.95;44.33;95141.63;4121961;28;19922;-63
2023/02/03 12:09:21;;;;;;;;;;;;;;;3.90;44.68;95107.44;4144244;28;19965;-65
2023/02/03 12:11:23;;;;;;;;;;;;;;;3.78;44.94;95108.28;4144523;28;20094;-64
2023/02/03 12:13:36;;;;;;;;;;;;;;;3.34;45.53;95122.56;4145834;28;19984;-62
2023/02/03 12:15:56;;;;;;;;;;;;;;;3.15;46.51;95126.38;4143252;28;20496;-63
2023/02/03 12:18:09;;;;;;;;;;;;;;;3.04;46.72;95111.56;4146576;28;19925;-63
2023/02/03 12:20:14;;;;;;;;;;;;;;;3.07;46.25;95115.72;4143702;28;19966;-65
2023/02/03 12:22:24;;;;;;;;;;;;;;;3.10;45.24;95137.97;4145712;28;20362;-64
2023/02/03 12:24:44;;;;;;;;;;;;;;;3.12;44.75;95142.16;4120877;28;20393;-63
2023/02/03 12:27:04;;;;;;;;;;;;;;;3.29;44.90;95112.50;4125959;28;19926;-64
2023/02/03 12:29:10;;;;;;;;;;;;;;;3.38;44.31;95124.00;4144673;28;19921;-65
2023/02/03 12:31:28;;;;;;;;;;;;;;;3.52;44.67;95108.34;4121713;28;19941;-63
2023/02/03 12:33:30;;;;;;;;;;;;;;;3.56;44.84;95109.78;4143556;28;19922;-64
2023/02/03 12:35:33;;;;;;;;;;;;;;;3.47;45.04;95116.44;4131161;28;20008;-63
2023/02/03 12:37:47;;;;;;;;;;;;;;;3.08;46.12;95132.91;4131344;28;20422;-65
2023/02/03 12:39:52;;;;;;;;;;;;;;;3.25;46.14;95100.72;4147769;28;19922;-65
2023/02/03 12:41:57;;;;;;;;;;;;;;;3.29;46.41;95096.97;4113519;28;19926;-64
2023/02/03 12:44:00;;;;;;;;;;;;;;;3.02;46.06;95104.84;4129260;28;19953;-62
2023/02/03 12:46:13;;;;;;;;;;;;;;;3.15;46.99;95097.09;4130440;28;20326;-62
2023/02/03 12:48:16;;;;;;;;;;;;;;;3.22;46.96;95096.56;4142147;28;19922;-63
2023/02/03 12:50:39;;;;;;;;;;;;;;;3.34;47.30;95101.84;4123562;28;19973;-63
2023/02/03 12:52:46;;;;;;;;;;;;;;;3.46;46.65;95096.66;4126750;28;20020;-63
2023/02/03 12:54:49;;;;;;;;;;;;;;;3.31;47.90;95089.09;4128789;28;19949;-64
2023/02/03 12:56:51;;;;;;;;;;;;;;;3.22;47.43;95085.38;4115146;28;20106;-63
2023/02/03 12:59:05;;;;;;;;;;;;;;;3.29;47.60;95081.41;4108391;28;19922;-64
2023/02/03 13:01:07;;;;;;;;;;;;;;;3.38;47.46;95085.16;4114321;28;19922;-62
2023/02/03 13:03:11;;;;;;;;;;;;;;;3.12;48.52;95079.16;4126438;28;19922;-64
2023/02/03 13:05:22;;;;;;;;;;;;;;;3.22;49.18;95075.84;4126203;28;19926;-63
2023/02/03 13:07:44;;;;;;;;;;;;;;;3.42;49.27;95071.03;4116822;28;20337;-65
2023/02/03 13:09:51;;;;;;;;;;;;;;;3.43;49.48;95072.72;4131491;28;20260;-65
2023/02/03 13:11:58;;;;;;;;;;;;;;;3.36;48.89;95067.13;4118736;28;19973;-65
2023/02/03 13:14:12;;;;;;;;;;;;;;;3.34;49.64;95073.38;4130128;28;19922;-64
2023/02/03 13:16:13;;;;;;;;;;;;;;;3.40;49.54;95066.00;4138004;28;19928;-63
2023/02/03 13:18:21;;;;;;;;;;;;;;;3.54;49.35;95064.19;4159341;28;19928;-63
2023/02/03 13:20:23;;;;;;;;;;;;;;;3.40;49.67;95084.13;4135208;28;20016;-65
2023/02/03 13:22:25;;;;;;;;;;;;;;;3.27;50.05;95071.19;4147281;28;20416;-64
2023/02/03 13:24:27;;;;;;;;;;;;;;;3.27;50.13;95076.38;4139335;28;19927;-64
2023/02/03 13:26:45;;;;;;;;;;;;;;;3.22;50.68;95069.84;4146030;28;19930;-66
2023/02/03 13:28:50;;;;;;;;;;;;;;;3.25;50.42;95064.47;4145981;28;20623;-62
2023/02/03 13:30:53;;;;;;;;;;;;;;;3.28;50.79;95075.41;4136575;28;20261;-64
2023/02/03 13:32:56;;;;;;;;;;;;;;;3.42;50.51;95066.72;4144333;28;19965;-64
2023/02/03 13:35:29;;;;;;;;;;;;;;;3.47;50.33;95074.16;4146900;28;19921;-66
2023/02/03 13:37:41;;;;;;;;;;;;;;;3.42;50.03;95066.72;4121782;28;20243;-66
2023/02/03 13:40:02;;;;;;;;;;;;;;;3.37;50.46;95063.59;4145615;28;19955;-65
2023/02/03 13:42:06;;;;;;;;;;;;;;;3.10;50.67;95068.94;4135467;28;19976;-66
2023/02/03 13:44:11;;;;;;;;;;;;;;;3.21;51.00;95063.84;4146225;28;20000;-65
2023/02/03 13:46:21;;;;;;;;;;;;;;;3.02;50.83;95099.69;4128745;28;19925;-63
2023/02/03 13:48:26;;;;;;;;;;;;;;;2.99;51.45;95071.41;4145881;28;19979;-64
2023/02/03 13:50:28;;;;;;;;;;;;;;;3.03;51.91;95070.25;4145753;28;19921;-64
2023/02/03 13:52:49;;;;;;;;;;;;;;;3.08;51.45;95069.03;4146987;28;19921;-65
2023/02/03 13:54:53;;;;;;;;;;;;;;;3.14;51.87;95082.47;4134667;28;20036;-64
2023/02/03 13:57:01;;;;;;;;;;;;;;;3.15;51.75;95082.38;4145859;28;20045;-65
2023/02/03 13:59:04;;;;;;;;;;;;;;;3.12;51.89;95098.13;4145565;28;20458;-65
2023/02/03 14:01:24;;;;;;;;;;;;;;;3.04;51.76;95087.47;4131673;28;19930;-65
2023/02/03 14:03:25;;;;;;;;;;;;;;;2.94;52.18;95079.47;4130707;28;19976;-65
2023/02/03 14:05:37;;;;;;;;;;;;;;;3.08;52.06;95088.91;4142400;28;19921;-65
2023/02/03 14:07:39;;;;;;;;;;;;;;;3.22;52.10;95085.38;4146220;28;19957;-65
2023/02/03 14:09:40;;;;;;;;;;;;;;;3.27;51.69;95081.56;4145235;28;19971;-65
2023/02/03 14:11:43;;;;;;;;;;;;;;;3.37;51.46;95073.97;4136085;28;19926;-65
2023/02/03 14:13:44;;;;;;;;;;;;;;;3.40;51.38;95066.00;4145617;28;20324;-65
2023/02/03 14:15:47;;;;;;;;;;;;;;;3.39;51.65;95066.91;4141284;28;19921;-64
2023/02/03 14:17:49;;;;;;;;;;;;;;;3.39;50.86;95072.09;4153626;28;19961;-63
2023/02/03 14:19:50;;;;;;;;;;;;;;;3.33;51.02;95066.50;4137932;28;19991;-63
2023/02/03 14:22:14;;;;;;;;;;;;;;;3.11;51.67;95065.41;4143518;28;19931;-64
2023/02/03 14:24:16;;;;;;;;;;;;;;;3.22;51.53;95070.66;4146292;28;19921;-65
2023/02/03 14:26:19;;;;;;;;;;;;;;;3.21;51.42;95068.19;4147086;28;19929;-65
2023/02/03 14:28:25;;;;;;;;;;;;;;;3.21;51.28;95076.78;4122857;28;19930;-64
2023/02/03 14:30:27;;;;;;;;;;;;;;;3.33;51.46;95074.28;4138488;28;19925;-65
2023/02/03 14:32:46;;;;;;;;;;;;;;;3.42;50.75;95063.28;4139490;28;19921;-65
2023/02/03 14:34:48;;;;;;;;;;;;;;;3.50;50.74;95058.41;4136098;28;20293;-65
2023/02/03 14:36:51;;;;;;;;;;;;;;;3.47;50.85;95066.41;4128590;28;20358;-64
2023/02/03 14:38:53;;;;;;;;;;;;;;;3.49;49.39;95074.88;4147062;28;19922;-65
2023/02/03 14:40:55;;;;;;;;;;;;;;;3.48;48.78;95068.03;4137899;28;20291;-64
2023/02/03 14:43:06;;;;;;;;;;;;;;;3.47;48.76;95068.97;4139459;28;20004;-63
2023/02/03 14:45:18;;;;;;;;;;;;;;;3.37;48.40;95070.53;4140928;28;19961;-64
2023/02/03 14:47:22;;;;;;;;;;;;;;;3.40;48.11;95057.38;4138258;28;19922;-62
2023/02/03 14:49:27;;;;;;;;;;;;;;;3.47;47.70;95063.81;4146529;28;19925;-63
2023/02/03 14:51:29;;;;;;;;;;;;;;;3.36;47.77;95061.97;4127451;28;20021;-63
2023/02/03 14:53:49;;;;;;;;;;;;;;;3.25;48.54;95054.94;4146634;28;19984;-64
2023/02/03 14:55:50;;;;;;;;;;;;;;;3.23;48.91;95059.38;4146639;28;20335;-64
2023/02/03 14:57:53;;;;;;;;;;;;;;;3.28;49.32;95053.88;4176307;28;20422;-63
2023/02/03 15:00:04;;;;;;;;;;;;;;;3.30;49.23;95046.84;4131848;28;19922;-63
2023/02/03 15:02:07;;;;;;;;;;;;;;;3.35;49.77;95044.75;4149133;28;20049;-65
2023/02/03 15:04:12;;;;;;;;;;;;;;;3.33;49.71;95049.19;4149583;28;19922;-62
2023/02/03 15:06:33;;;;;;;;;;;;;;;3.44;49.98;95038.09;4133983;28;19968;-63
2023/02/03 15:08:58;;;;;;;;;;;;;;;3.44;49.52;95026.00;4143174;28;20552;-64
2023/02/03 15:11:00;;;;;;;;;;;;;;;3.41;49.53;95026.19;4133885;28;19972;-65
2023/02/03 15:13:01;;;;;;;;;;;;;;;3.43;49.87;95021.75;4131582;28;19922;-66
2023/02/03 15:15:13;;;;;;;;;;;;;;;3.38;49.98;95023.00;4146635;28;19968;-65
2023/02/03 15:17:22;;;;;;;;;;;;;;;3.28;50.49;95012.47;4149429;28;19944;-63
2023/02/03 15:19:25;;;;;;;;;;;;;;;3.31;50.37;95004.47;4140285;28;19972;-63
2023/02/03 15:21:27;;;;;;;;;;;;;;;3.28;49.85;95004.69;4146215;28;19928;-65
2023/02/03 15:23:30;;;;;;;;;;;;;;;3.32;48.84;94998.38;4136305;28;19976;-66
2023/02/03 15:25:31;;;;;;;;;;;;;;;3.34;47.96;95011.22;4149741;28;20430;-63
2023/02/03 15:27:33;;;;;;;;;;;;;;;3.35;47.88;95007.66;4149223;28;20641;-63
2023/02/03 15:29:35;;;;;;;;;;;;;;;3.27;47.57;95001.28;4134921;28;20008;-63
2023/02/03 15:31:40;;;;;;;;;;;;;;;3.35;47.28;95005.91;4155132;28;19936;-64
2023/02/03 15:33:43;;;;;;;;;;;;;;;3.31;47.11;95004.47;4132250;28;19977;-63
2023/02/03 15:35:44;;;;;;;;;;;;;;;3.35;46.89;95003.31;4148201;28;20359;-65
2023/02/03 15:37:50;;;;;;;;;;;;;;;3.28;47.13;95002.09;4131841;28;19972;-65
2023/02/03 15:39:52;;;;;;;;;;;;;;;3.24;46.98;94995.47;4149171;28;20403;-66
2023/02/03 15:41:53;;;;;;;;;;;;;;;3.25;47.23;94999.75;4148608;28;19929;-64
2023/02/03 15:43:55;;;;;;;;;;;;;;;3.26;46.83;94996.19;4131517;28;19922;-66
2023/02/03 15:46:06;;;;;;;;;;;;;;;3.30;46.48;94989.88;4149051;28;20009;-62
2023/02/03 15:48:12;;;;;;;;;;;;;;;3.21;46.95;94987.94;4131678;28;19984;-64
2023/02/03 15:50:43;;;;;;;;;;;;;;;3.19;47.15;94989.81;4149227;28;19972;-62
2023/02/03 15:52:45;;;;;;;;;;;;;;;3.15;47.10;94994.34;4144448;28;19972;-64
2023/02/03 15:54:52;;;;;;;;;;;;;;;3.11;47.91;94990.31;4145974;28;19996;-64
2023/02/03 15:56:58;;;;;;;;;;;;;;;3.02;47.96;94983.22;4131025;28;19922;-65
2023/02/03 15:58:59;;;;;;;;;;;;;;;2.98;47.94;94981.75;4142513;28;20470;-64
2023/02/03 16:01:07;;;;;;;;;;;;;;;2.94;47.87;94975.97;4133596;28;19929;-66
2023/02/03 16:03:20;;;;;;;;;;;;;;;3.04;47.84;94966.63;4120554;28;20528;-64
2023/02/03 16:05:28;;;;;;;;;;;;;;;3.01;47.91;94971.19;4147634;28;20013;-63
2023/02/03 16:07:30;;;;;;;;;;;;;;;2.98;47.75;94974.00;4153674;28;20012;-65
2023/02/03 16:09:32;;;;;;;;;;;;;;;2.93;47.68;94976.09;4148863;28;19952;-64
2023/02/03 16:11:35;;;;;;;;;;;;;;;2.91;48.17;94965.00;4148661;28;19929;-63
2023/02/03 16:13:41;;;;;;;;;;;;;;;2.93;47.76;94960.56;4141795;28;20276;-67
2023/02/03 16:15:43;;;;;;;;;;;;;;;2.91;47.69;94965.84;4134765;28;20328;-63
2023/02/03 16:17:44;;;;;;;;;;;;;;;2.96;47.60;94965.50;4148096;28;19975;-63
2023/02/03 16:19:50;;;;;;;;;;;;;;;2.93;47.59;94951.03;4138629;28;20328;-64
2023/02/03 16:21:52;;;;;;;;;;;;;;;2.90;47.70;94955.56;4146425;28;19965;-65
2023/02/03 16:23:54;;;;;;;;;;;;;;;2.73;48.27;94954.16;4147558;28;19967;-64
2023/02/03 16:26:01;;;;;;;;;;;;;;;2.58;48.47;94950.84;4131757;28;19921;-64
2023/02/03 16:51:48;;;;;;;;;;;;;;;2.68;48.17;94887.22;4142109;28;19932;-62
2023/02/03 16:53:49;;;;;;;;;;;;;;;2.51;48.39;94882.38;4157142;28;20337;-63
2023/02/03 16:55:51;;;;;;;;;;;;;;;2.45;48.74;94888.78;4148189;28;19922;-63
2023/02/03 16:57:53;;;;;;;;;;;;;;;2.41;49.19;94879.59;4147002;28;19925;-64
2023/02/03 16:59:55;;;;;;;;;;;;;;;2.42;48.99;94868.31;4142851;28;20311;-67
2023/02/03 17:01:56;;;;;;;;;;;;;;;2.40;48.92;94871.00;4129363;28;19921;-62
2023/02/03 17:03:58;;;;;;;;;;;;;;;2.23;48.98;94859.22;4132428;28;20016;-63
2023/02/03 17:06:07;;;;;;;;;;;;;;;2.33;48.53;94861.22;4147216;28;19922;-64
2023/02/03 17:08:08;;;;;;;;;;;;;;;2.41;48.08;94869.25;4152806;28;19972;-63
2023/02/03 17:10:10;;;;;;;;;;;;;;;2.44;47.80;94864.69;4147523;28;19922;-65
2023/02/03 17:12:11;;;;;;;;;;;;;;;2.43;47.60;94863.06;4133711;28;20774;-65
2023/02/03 17:14:13;;;;;;;;;;;;;;;2.50;47.48;94865.22;4147237;28;19972;-65
2023/02/03 17:16:15;;;;;;;;;;;;;;;2.57;46.42;94856.09;4137520;28;20356;-63
2023/02/03 17:18:17;;;;;;;;;;;;;;;2.61;45.98;94873.88;4129460;28;19929;-63
2023/02/03 17:20:19;;;;;;;;;;;;;;;2.70;45.56;94862.06;4147213;28;19921;-63
2023/02/03 17:22:20;;;;;;;;;;;;;;;2.75;45.15;94856.56;4140843;28;19928;-64
2023/02/03 17:24:23;;;;;;;;;;;;;;;2.80;44.72;94842.38;4142085;28;19921;-63
2023/02/03 17:26:24;;;;;;;;;;;;;;;2.77;44.68;94832.22;4146388;28;19925;-64
2023/02/03 17:28:26;;;;;;;;;;;;;;;2.80;44.86;94841.56;4130979;28;19922;-64
2023/02/03 17:30:27;;;;;;;;;;;;;;;2.85;44.82;94839.47;4133903;28;20008;-63
2023/02/03 17:32:29;;;;;;;;;;;;;;;2.60;45.88;94833.44;4134940;28;19921;-64
2023/02/03 17:34:30;;;;;;;;;;;;;;;2.48;46.43;94825.72;4137372;28;20340;-63
2023/02/03 17:36:32;;;;;;;;;;;;;;;2.56;46.83;94826.84;4147387;28;20365;-63
2023/02/03 17:38:38;;;;;;;;;;;;;;;2.64;46.87;94826.28;4137847;28;19925;-64
2023/02/03 17:40:57;;;;;;;;;;;;;;;2.78;46.17;94826.13;4132675;28;19949;-65
2023/02/03 17:43:16;;;;;;;;;;;;;;;2.79;45.71;94817.44;4131787;28;19969;-65
2023/02/03 17:45:39;;;;;;;;;;;;;;;2.83;45.81;94820.63;4139614;28;19924;-64
2023/02/03 17:48:00;;;;;;;;;;;;;;;2.89;44.21;94819.38;4139154;28;19920;-65
2023/02/03 17:50:19;;;;;;;;;;;;;;;2.95;43.97;94804.25;4143069;28;19919;-64
2023/02/03 17:52:38;;;;;;;;;;;;;;;3.02;44.02;94817.56;4146811;28;20544;-63
2023/02/03 17:54:57;;;;;;;;;;;;;;;3.08;43.66;94786.06;4147323;28;20013;-65
2023/02/03 17:56:58;;;;;;;;;;;;;;;3.16;43.34;94791.53;4146487;28;19929;-65
2023/02/03 17:59:01;;;;;;;;;;;;;;;3.15;43.10;94794.22;4146984;28;19944;-65
2023/02/03 18:01:16;;;;;;;;;;;;;;;3.07;43.49;94803.34;4146192;28;19921;-65
2023/02/03 18:03:17;;;;;;;;;;;;;;;3.10;43.64;94789.38;4129027;28;19961;-64
2023/02/03 18:05:19;;;;;;;;;;;;;;;3.14;44.21;94780.44;4146908;28;19971;-64
2023/02/03 18:07:21;;;;;;;;;;;;;;;3.12;44.54;94758.19;4152333;28;19925;-64
2023/02/03 18:09:22;;;;;;;;;;;;;;;3.19;44.07;94780.09;4146913;28;19976;-65
2023/02/03 18:11:24;;;;;;;;;;;;;;;3.21;44.16;94771.28;4129455;28;19981;-65
2023/02/03 18:13:26;;;;;;;;;;;;;;;3.29;43.46;94770.69;4133359;28;19968;-63
2023/02/03 18:15:27;;;;;;;;;;;;;;;3.36;44.37;94768.50;4133450;28;19925;-65
2023/02/03 18:17:29;;;;;;;;;;;;;;;3.40;44.15;94777.69;4146388;28;19948;-64
2023/02/03 18:19:31;;;;;;;;;;;;;;;3.40;43.67;94739.69;4147151;28;19922;-62
2023/02/03 18:21:33;;;;;;;;;;;;;;;3.42;43.67;94758.53;4133483;28;19922;-64
2023/02/03 18:23:34;;;;;;;;;;;;;;;3.50;43.48;94750.16;4145554;28;19957;-65
2023/02/03 18:25:36;;;;;;;;;;;;;;;3.47;43.57;94763.34;4139608;28;19957;-64
2023/02/03 18:27:37;;;;;;;;;;;;;;;3.44;44.16;94761.81;4129177;28;19922;-64
2023/02/03 18:29:39;;;;;;;;;;;;;;;3.36;43.92;94782.28;4145809;28;20284;-66
2023/02/03 18:31:42;;;;;;;;;;;;;;;3.43;43.31;94770.53;4157174;28;20387;-65
2023/02/03 18:33:45;;;;;;;;;;;;;;;3.44;44.10;94764.41;4147210;28;20393;-64
2023/02/03 18:35:46;;;;;;;;;;;;;;;3.49;43.93;94757.13;4129220;28;20280;-64
2023/02/03 18:37:48;;;;;;;;;;;;;;;3.47;43.01;94766.75;4146933;28;19941;-63
2023/02/03 18:39:49;;;;;;;;;;;;;;;3.48;43.78;94770.19;4146241;28;19922;-63
2023/02/03 18:41:51;;;;;;;;;;;;;;;3.52;43.79;94771.59;4125503;28;19922;-65
2023/02/03 18:43:53;;;;;;;;;;;;;;;3.48;43.38;94772.75;4152715;28;19921;-63
2023/02/03 18:45:54;;;;;;;;;;;;;;;3.49;43.54;94759.72;4152003;28;20431;-63
2023/02/03 18:47:56;;;;;;;;;;;;;;;3.45;43.70;94760.88;4146330;28;20008;-64
2023/02/03 18:49:57;;;;;;;;;;;;;;;3.45;44.55;94760.88;4146305;28;19933;-65
2023/02/03 18:51:59;;;;;;;;;;;;;;;3.46;43.81;94767.72;4139731;28;20012;-65
2023/02/03 18:54:00;;;;;;;;;;;;;;;3.49;44.05;94756.31;4129830;28;20351;-63
2023/02/03 18:56:04;;;;;;;;;;;;;;;3.44;43.87;94774.78;4143416;28;20417;-64
2023/02/03 18:58:06;;;;;;;;;;;;;;;3.43;43.76;94756.75;4136834;28;20371;-65
2023/02/03 19:00:08;;;;;;;;;;;;;;;3.40;44.11;94768.16;4155581;28;19929;-62
2023/02/03 19:02:09;;;;;;;;;;;;;;;3.27;43.90;94754.50;4146114;28;19921;-63
2023/02/03 19:04:12;;;;;;;;;;;;;;;3.22;43.95;94749.63;4146223;28;20308;-64
2023/02/03 19:06:14;;;;;;;;;;;;;;;3.26;44.32;94738.09;4148052;28;19962;-63
2023/02/03 19:08:16;;;;;;;;;;;;;;;3.25;43.83;94727.88;4150194;28;19921;-65
2023/02/03 19:10:18;;;;;;;;;;;;;;;3.34;43.81;94721.19;4158496;28;20258;-67
2023/02/03 19:12:19;;;;;;;;;;;;;;;3.33;44.10;94714.34;4129907;28;20351;-65
2023/02/03 19:14:22;;;;;;;;;;;;;;;3.31;43.99;94713.63;4130560;28;19969;-64
2023/02/03 19:16:23;;;;;;;;;;;;;;;3.40;43.91;94707.75;4130064;28;19922;-64
2023/02/03 19:18:25;;;;;;;;;;;;;;;3.47;44.16;94698.59;4144726;28;20363;-64
2023/02/03 19:20:26;;;;;;;;;;;;;;;3.42;44.02;94691.19;4146920;28;20367;-64
2023/02/03 19:22:28;;;;;;;;;;;;;;;3.41;43.70;94707.66;4138470;28;19922;-64
2023/02/03 19:24:30;;;;;;;;;;;;;;;3.49;44.13;94679.41;4130920;28;19949;-64
2023/02/03 19:26:31;;;;;;;;;;;;;;;3.54;43.66;94681.66;4131135;28;19922;-63
2023/02/03 19:28:33;;;;;;;;;;;;;;;3.40;43.96;94680.13;4131082;28;20289;-65
2023/02/03 19:30:35;;;;;;;;;;;;;;;3.40;44.39;94680.13;4140459;28;20406;-64
2023/02/03 19:32:37;;;;;;;;;;;;;;;3.44;43.86;94676.38;4156254;28;19944;-65
2023/02/03 19:34:39;;;;;;;;;;;;;;;3.51;44.14;94668.94;4145903;28;19925;-63
2023/02/03 19:36:40;;;;;;;;;;;;;;;3.49;44.58;94673.41;4133011;28;20443;-66
2023/02/03 19:38:42;;;;;;;;;;;;;;;3.50;44.28;94664.69;4134520;28;19952;-65
2023/02/03 19:40:44;;;;;;;;;;;;;;;3.60;44.13;94659.66;4139435;28;19922;-64
2023/02/03 19:42:45;;;;;;;;;;;;;;;3.58;43.95;94669.31;4140004;28;19921;-64
2023/02/03 19:44:49;;;;;;;;;;;;;;;3.65;43.75;94660.09;4148985;28;20496;-65
2023/02/03 19:46:51;;;;;;;;;;;;;;;3.77;43.42;94656.59;4144523;28;19973;-64
2023/02/03 19:48:52;;;;;;;;;;;;;;;3.84;44.17;94664.69;4140874;28;19922;-64
2023/02/03 19:50:54;;;;;;;;;;;;;;;3.91;43.63;94658.09;4148988;28;20016;-63
2023/02/03 19:52:55;;;;;;;;;;;;;;;3.87;43.70;94661.84;4148666;28;19964;-66
2023/02/03 19:54:57;;;;;;;;;;;;;;;3.91;43.33;94655.50;4149804;28;19921;-64
2023/02/03 19:56:58;;;;;;;;;;;;;;;3.92;44.07;94656.34;4148905;28;19995;-63